Time;durP1;ratioP1;P1;durP2;ratioP2;P2;SDS_P1;SDS_P2;PMS_P1;PMS_P2;Temp;Humidity;BMP_temperature;BMP_pressure;BME280_temperature;BME280_humidity;BME280_pressure;Samples;Min_cycle;Max_cycle;Signal;HPM_P1;HPM_P2
2022/10/20 00:01:14;;;;;;;1.27;0.40;;;;;;;3.81;100.00;99459.77;1719212;80;20956;-68
2022/10/20 00:03:41;;;;;;;1.42;0.35;;;;;;;3.76;100.00;99462.33;1721701;81;21086;-67
2022/10/20 00:06:13;;;;;;;0.90;0.40;;;;;;;3.75;100.00;99461.54;1719514;81;20980;-69
2022/10/20 00:08:40;;;;;;;1.35;0.60;;;;;;;3.68;100.00;99465.39;1715125;81;21018;-67
2022/10/20 00:11:08;;;;;;;1.70;0.37;;;;;;;3.65;100.00;99471.25;1721404;81;20991;-67
2022/10/20 00:13:35;;;;;;;0.50;0.35;;;;;;;3.64;100.00;99472.30;1717658;81;21549;-69
2022/10/20 00:16:03;;;;;;;1.92;0.33;;;;;;;3.63;100.00;99475.50;1675701;82;20980;-68
2022/10/20 00:18:29;;;;;;;1.10;0.47;;;;;;;3.58;100.00;99469.20;1716292;81;21042;-68
2022/10/20 00:23:19;;;;;;;1.60;0.50;;;;;;;3.50;100.00;99471.18;1776090;79;23408;-69
2022/10/20 00:25:47;;;;;;;0.90;0.30;;;;;;;3.40;100.00;99476.28;1753421;80;21069;-70
2022/10/20 00:28:13;;;;;;;1.95;0.30;;;;;;;3.39;100.00;99476.02;1762374;80;22337;-68
2022/10/20 00:30:41;;;;;;;1.10;0.47;;;;;;;3.37;100.00;99470.03;1753708;80;21086;-69
2022/10/20 00:33:07;;;;;;;1.55;0.53;;;;;;;3.35;100.00;99468.11;1752228;81;21069;-69
2022/10/20 00:35:37;;;;;;;3.20;0.37;;;;;;;3.28;100.00;99471.95;1748545;80;21019;-70
2022/10/20 00:38:03;;;;;;;2.22;0.40;;;;;;;3.27;100.00;99476.50;1735894;80;21084;-68
2022/10/20 00:40:29;;;;;;;2.25;0.60;;;;;;;3.28;100.00;99480.02;1747590;81;21649;-69
2022/10/20 00:42:57;;;;;;;2.00;0.30;;;;;;;3.25;100.00;99477.27;1742232;80;21120;-69
2022/10/20 00:45:24;;;;;;;1.40;0.50;;;;;;;3.21;100.00;99478.78;1754312;81;21038;-69
2022/10/20 00:47:58;;;;;;;1.37;0.40;;;;;;;3.15;100.00;99481.05;1761439;80;21078;-69
2022/10/20 00:50:30;;;;;;;1.67;0.98;;;;;;;3.14;100.00;99475.37;1754788;80;21027;-69
2022/10/20 00:52:57;;;;;;;1.30;0.50;;;;;;;3.16;100.00;99489.39;1755542;80;22022;-69
2022/10/20 00:55:27;;;;;;;1.90;0.45;;;;;;;3.18;100.00;99486.48;1760830;80;21411;-71
2022/10/20 00:57:55;;;;;;;1.75;0.40;;;;;;;3.14;100.00;99485.30;1737408;81;22282;-71
2022/10/20 01:00:22;;;;;;;2.87;0.53;;;;;;;3.15;100.00;99489.64;1749709;81;21074;-71
2022/10/20 01:02:49;;;;;;;2.83;0.42;;;;;;;3.18;100.00;99490.52;1755001;80;21141;-70
2022/10/20 01:05:16;;;;;;;1.75;0.62;;;;;;;3.24;100.00;99486.38;1753922;81;21470;-69
2022/10/20 01:07:45;;;;;;;1.57;0.40;;;;;;;3.30;100.00;99482.77;1728855;81;21052;-69
2022/10/20 01:10:11;;;;;;;0.62;0.30;;;;;;;3.35;100.00;99486.12;1756671;80;21002;-69
2022/10/20 01:13:08;;;;;;;0.75;0.40;;;;;;;3.36;100.00;99491.28;1750944;80;21066;-71
2022/10/20 01:16:04;;;;;;;2.35;0.50;;;;;;;3.39;100.00;99481.91;1726301;81;20991;-70
2022/10/20 01:18:39;;;;;;;1.47;0.40;;;;;;;3.40;100.00;99487.05;1704238;80;21035;-70
2022/10/20 01:21:29;;;;;;;3.10;0.50;;;;;;;3.44;100.00;99482.02;1717514;81;20992;-69
2022/10/20 01:24:21;;;;;;;0.90;0.40;;;;;;;3.42;100.00;99487.66;1682791;83;21007;-70
2022/10/20 01:27:13;;;;;;;1.55;0.50;;;;;;;3.45;100.00;99490.40;1719654;83;21121;-70
2022/10/20 01:30:03;;;;;;;2.50;0.60;;;;;;;3.41;100.00;99487.35;1735651;82;20980;-69
2022/10/20 01:32:43;;;;;;;0.65;0.35;;;;;;;3.36;100.00;99499.35;1717772;82;21049;-70
2022/10/20 01:35:51;;;;;;;2.15;0.60;;;;;;;3.36;100.00;99492.63;1734163;82;20975;-68
2022/10/20 01:38:41;;;;;;;2.00;0.60;;;;;;;3.38;100.00;99493.20;1727286;82;21072;-69
2022/10/20 01:41:17;;;;;;;2.72;0.60;;;;;;;3.31;100.00;99492.48;1697184;82;21005;-71
2022/10/20 01:43:44;;;;;;;1.30;0.50;;;;;;;3.22;100.00;99493.88;1721011;82;21009;-69
2022/10/20 01:46:11;;;;;;;2.33;0.50;;;;;;;3.23;100.00;99512.16;1700387;83;21439;-71
2022/10/20 01:48:39;;;;;;;2.62;0.40;;;;;;;3.21;100.00;99509.72;1721485;82;21019;-69
2022/10/20 01:51:05;;;;;;;2.67;0.47;;;;;;;3.17;100.00;99505.84;1722448;82;21539;-69
2022/10/20 01:53:33;;;;;;;2.08;0.60;;;;;;;3.14;100.00;99513.02;1748730;82;21010;-69
2022/10/20 01:55:59;;;;;;;2.45;0.62;;;;;;;3.09;100.00;99510.70;1729209;82;21011;-68
2022/10/20 01:58:46;;;;;;;1.27;0.50;;;;;;;3.03;100.00;99508.94;1729085;82;21004;-69
2022/10/20 02:01:53;;;;;;;4.43;0.60;;;;;;;2.98;100.00;99510.44;1708785;82;21020;-67
2022/10/20 02:04:25;;;;;;;1.50;0.62;;;;;;;2.97;100.00;99524.13;1687229;85;21013;-67
2022/10/20 02:06:58;;;;;;;1.92;0.60;;;;;;;2.89;100.00;99519.89;1700131;83;21075;-67
2022/10/20 02:09:42;;;;;;;2.80;0.60;;;;;;;2.88;100.00;99524.13;1703497;82;21002;-68
2022/10/20 02:12:12;;;;;;;1.20;0.40;;;;;;;2.93;100.00;99521.08;1702431;83;21527;-68
2022/10/20 02:14:39;;;;;;;1.50;0.47;;;;;;;2.95;100.00;99530.24;1692496;84;21471;-68
2022/10/20 02:17:10;;;;;;;1.67;0.57;;;;;;;2.94;100.00;99528.63;1697526;83;21111;-68
2022/10/20 02:19:42;;;;;;;1.10;0.45;;;;;;;2.99;100.00;99532.78;1722076;82;21467;-68
2022/10/20 02:22:10;;;;;;;2.60;0.60;;;;;;;3.04;100.00;99521.34;1686385;83;21076;-69
2022/10/20 02:24:38;;;;;;;1.22;0.42;;;;;;;3.10;100.00;99525.80;1677296;83;21549;-69
2022/10/20 02:27:21;;;;;;;1.20;0.50;;;;;;;3.11;100.00;99526.94;1685053;83;21120;-69
2022/10/20 02:29:56;;;;;;;1.15;0.57;;;;;;;3.09;100.00;99530.88;1683344;84;21047;-69
2022/10/20 02:32:23;;;;;;;1.70;0.50;;;;;;;3.11;100.00;99532.31;1720335;82;21410;-68
2022/10/20 02:34:50;;;;;;;3.30;0.60;;;;;;;3.15;100.00;99542.92;1739590;80;21545;-68
2022/10/20 02:37:16;;;;;;;1.67;0.60;;;;;;;3.11;100.00;99530.97;1744202;81;21023;-68
2022/10/20 02:39:43;;;;;;;1.22;0.60;;;;;;;3.10;100.00;99540.08;1738919;80;20973;-70
2022/10/20 02:42:11;;;;;;;2.77;0.55;;;;;;;3.11;100.00;99537.69;1740530;82;21082;-69
2022/10/20 02:44:37;;;;;;;1.45;0.60;;;;;;;3.12;100.00;99535.28;1743599;82;20972;-67
2022/10/20 02:47:04;;;;;;;2.55;0.62;;;;;;;3.09;100.00;99536.26;1742994;80;21055;-69
2022/10/20 02:49:31;;;;;;;3.70;0.60;;;;;;;3.05;100.00;99537.23;1744573;81;21001;-69
2022/10/20 02:51:59;;;;;;;1.95;0.60;;;;;;;3.05;100.00;99536.45;1727374;80;21051;-69
2022/10/20 02:54:27;;;;;;;1.00;0.45;;;;;;;3.05;100.00;99533.75;1717335;80;20988;-69
2022/10/20 02:56:54;;;;;;;2.85;0.60;;;;;;;3.03;100.00;99538.00;1743113;80;21134;-70
2022/10/20 02:59:20;;;;;;;3.90;0.60;;;;;;;2.98;100.00;99537.85;1735035;80;20988;-69
2022/10/20 03:01:47;;;;;;;1.62;0.40;;;;;;;2.97;100.00;99541.09;1742676;80;20993;-68
2022/10/20 03:04:15;;;;;;;1.40;0.50;;;;;;;3.01;100.00;99542.80;1743704;80;20972;-69
2022/10/20 03:06:41;;;;;;;1.15;0.50;;;;;;;2.97;100.00;99537.58;1668592;83;21050;-69
2022/10/20 03:09:09;;;;;;;1.45;0.50;;;;;;;2.95;100.00;99533.76;1742833;81;21458;-70
2022/10/20 03:11:36;;;;;;;2.25;0.78;;;;;;;2.94;100.00;99536.14;1740782;80;21021;-68
2022/10/20 03:14:04;;;;;;;2.42;0.50;;;;;;;2.92;100.00;99536.08;1708864;83;21393;-69
2022/10/20 03:16:31;;;;;;;2.98;0.70;;;;;;;2.88;100.00;99543.78;1739297;81;21596;-70
2022/10/20 03:19:00;;;;;;;1.82;0.70;;;;;;;2.89;100.00;99542.73;1739002;81;21476;-71
2022/10/20 03:21:26;;;;;;;2.05;0.55;;;;;;;2.91;100.00;99540.63;1738283;80;21054;-70
2022/10/20 03:23:54;;;;;;;4.20;0.60;;;;;;;2.89;100.00;99537.88;1727544;80;21638;-69
2022/10/20 03:26:21;;;;;;;1.40;0.60;;;;;;;2.85;100.00;99532.66;1729580;81;21655;-68
2022/10/20 03:28:47;;;;;;;3.50;0.57;;;;;;;2.85;100.00;99538.86;1731711;80;21014;-69
2022/10/20 03:31:14;;;;;;;3.12;0.53;;;;;;;2.91;100.00;99539.81;1742435;82;20944;-69
2022/10/20 03:33:40;;;;;;;1.67;0.50;;;;;;;2.94;100.00;99548.79;1741433;80;20992;-69
2022/10/20 03:36:07;;;;;;;;;;;;;;;2.92;100.00;99542.28;1752537;80;20980;-68
2022/10/20 03:38:33;;;;;;;1.27;0.60;;;;;;;2.86;100.00;99550.44;1740009;80;20115;-68
2022/10/20 03:41:00;;;;;;;1.95;0.70;;;;;;;2.79;100.00;99552.39;1732279;81;20960;-70
2022/10/20 03:43:26;;;;;;;1.52;0.62;;;;;;;2.82;100.00;99554.62;1737741;81;21013;-70
2022/10/20 03:46:04;;;;;;;2.17;0.40;;;;;;;2.81;100.00;99554.31;1746965;80;21589;-69
2022/10/20 03:48:31;;;;;;;1.75;0.80;;;;;;;2.81;100.00;99547.08;1739419;80;21500;-69
2022/10/20 03:50:59;;;;;;;2.67;0.50;;;;;;;2.81;100.00;99548.94;1740206;80;21499;-69
2022/10/20 03:53:27;;;;;;;3.47;0.65;;;;;;;2.83;100.00;99545.00;1746324;80;21589;-68
2022/10/20 03:55:54;;;;;;;1.70;0.50;;;;;;;2.88;100.00;99539.75;1736308;80;20963;-69
2022/10/20 03:58:20;;;;;;;0.82;0.45;;;;;;;2.92;100.00;99545.48;1740501;82;21065;-68
2022/10/20 04:00:47;;;;;;;1.65;0.50;;;;;;;2.93;100.00;99552.52;1741628;80;20973;-69
2022/10/20 04:03:14;;;;;;;1.82;0.50;;;;;;;2.89;100.00;99549.98;1731894;81;21136;-68
2022/10/20 04:05:40;;;;;;;;;;;;;;;2.93;100.00;99549.83;1743716;80;21492;-70
2022/10/20 04:08:08;;;;;;;;;;;;;;;3.00;100.00;99551.91;1743362;81;20103;-67
2022/10/20 04:10:35;;;;;;;2.30;1.00;;;;;;;2.93;100.00;99551.17;1741690;80;20151;-69
2022/10/20 04:13:03;;;;;;;2.17;0.55;;;;;;;2.87;100.00;99539.98;1741720;80;21094;-68
2022/10/20 04:15:31;;;;;;;2.42;0.60;;;;;;;2.94;100.00;99547.45;1744831;80;21535;-69
2022/10/20 04:17:57;;;;;;;;;;;;;;;2.93;100.00;99545.28;1744485;82;21063;-68
2022/10/20 04:20:25;;;;;;;1.67;0.70;;;;;;;2.92;100.00;99545.48;1746276;81;20494;-71
2022/10/20 04:22:53;;;;;;;1.90;0.80;;;;;;;2.89;100.00;99545.43;1744198;81;21529;-69
2022/10/20 04:25:20;;;;;;;1.60;0.62;;;;;;;2.91;100.00;99546.53;1736848;80;21511;-69
2022/10/20 04:27:47;;;;;;;1.90;0.60;;;;;;;2.87;100.00;99552.09;1740331;81;21106;-70
2022/10/20 04:30:13;;;;;;;;;;;;;;;2.86;100.00;99557.98;1737599;80;21517;-69
2022/10/20 04:32:41;;;;;;;;;;;;;;;2.90;100.00;99560.52;1749434;81;20457;-69
2022/10/20 04:35:09;;;;;;;2.45;0.53;;;;;;;2.90;100.00;99548.95;1742099;81;20139;-71
2022/10/20 04:37:36;;;;;;;4.45;0.72;;;;;;;2.88;100.00;99548.33;1742271;80;21039;-69
2022/10/20 04:40:03;;;;;;;2.45;0.72;;;;;;;2.91;100.00;99555.94;1740328;81;21393;-70
2022/10/20 04:42:30;;;;;;;1.37;0.60;;;;;;;2.96;100.00;99560.13;1740345;81;21640;-69
2022/10/20 04:44:57;;;;;;;1.98;0.50;;;;;;;3.07;100.00;99567.95;1748180;80;21007;-71
2022/10/20 04:47:23;;;;;;;2.10;0.93;;;;;;;3.12;100.00;99570.80;1724286;82;21048;-69
2022/10/20 04:49:50;;;;;;;;;;;;;;;3.12;100.00;99570.80;1746806;81;21439;-68
2022/10/20 04:52:16;;;;;;;1.72;0.50;;;;;;;3.18;100.00;99573.91;1745601;80;20102;-69
2022/10/20 04:54:43;;;;;;;4.05;0.70;;;;;;;3.19;100.00;99576.36;1741886;82;21895;-70
2022/10/20 04:57:09;;;;;;;2.37;0.62;;;;;;;3.18;100.00;99576.60;1742150;80;21030;-70
2022/10/20 04:59:36;;;;;;;4.50;0.70;;;;;;;3.16;100.00;99583.54;1737534;81;21861;-69
2022/10/20 05:02:02;;;;;;;4.25;0.65;;;;;;;3.18;100.00;99591.39;1740695;82;21111;-68
2022/10/20 05:04:29;;;;;;;;;;;;;;;3.18;100.00;99590.05;1745572;80;21003;-67
2022/10/20 05:06:56;;;;;;;1.57;0.40;;;;;;;3.16;100.00;99599.67;1735728;80;20144;-67
2022/10/20 05:09:22;;;;;;;2.72;0.70;;;;;;;3.02;100.00;99590.14;1743373;80;20997;-68
2022/10/20 05:11:49;;;;;;;;;;;;;;;2.98;100.00;99594.32;1728108;81;21075;-67
2022/10/20 05:14:16;;;;;;;0.93;0.50;;;;;;;3.01;100.00;99603.31;1742635;80;20434;-68
2022/10/20 05:16:44;;;;;;;1.20;0.50;;;;;;;2.94;100.00;99603.36;1741850;80;21584;-67
2022/10/20 05:19:10;;;;;;;0.88;0.40;;;;;;;2.85;100.00;99598.52;1742610;80;21028;-67
2022/10/20 05:21:37;;;;;;;2.58;0.50;;;;;;;2.85;100.00;99610.63;1747174;82;21013;-67
2022/10/20 05:24:04;;;;;;;1.32;0.50;;;;;;;2.86;100.00;99612.28;1734059;81;21546;-68
2022/10/20 05:26:35;;;;;;;1.27;0.50;;;;;;;2.88;100.00;99616.38;1723962;82;21063;-68
2022/10/20 05:29:04;;;;;;;0.80;0.40;;;;;;;2.91;100.00;99622.64;1727698;81;21021;-69
2022/10/20 05:31:30;;;;;;;1.87;0.42;;;;;;;2.87;100.00;99619.30;1688554;84;21888;-69
2022/10/20 05:33:56;;;;;;;;;;;;;;;2.86;100.00;99627.06;1696094;85;21044;-69
2022/10/20 05:36:25;;;;;;;1.20;0.40;;;;;;;2.82;100.00;99629.38;1725246;82;20122;-70
2022/10/20 05:38:52;;;;;;;3.20;0.70;;;;;;;2.72;100.00;99629.60;1753755;81;21704;-68
2022/10/20 05:41:28;;;;;;;0.90;0.50;;;;;;;2.67;100.00;99624.06;1733278;81;21505;-68
2022/10/20 05:43:56;;;;;;;1.60;0.70;;;;;;;2.66;100.00;99630.50;1721968;83;21088;-69
2022/10/20 05:46:26;;;;;;;2.17;0.78;;;;;;;2.65;100.00;99627.50;1726306;82;21617;-68
2022/10/20 05:48:55;;;;;;;2.50;0.88;;;;;;;2.63;100.00;99639.81;1739398;81;21523;-69
2022/10/20 05:51:25;;;;;;;2.47;0.80;;;;;;;2.64;100.00;99641.98;1717266;82;21892;-69
2022/10/20 05:53:53;;;;;;;3.30;0.90;;;;;;;2.64;100.00;99633.40;1719309;82;21020;-69
2022/10/20 05:56:20;;;;;;;3.05;1.00;;;;;;;2.70;100.00;99641.08;1718598;82;21052;-68
2022/10/20 05:58:47;;;;;;;3.58;0.80;;;;;;;2.71;100.00;99645.42;1721220;82;20981;-69
2022/10/20 06:01:20;;;;;;;;;;;;;;;2.77;100.00;99653.41;1728620;82;21012;-69
2022/10/20 06:03:51;;;;;;;1.35;0.60;;;;;;;2.74;100.00;99654.38;1722353;82;20416;-68
2022/10/20 06:06:19;;;;;;;1.00;0.50;;;;;;;2.72;100.00;99657.30;1721910;82;20984;-68
2022/10/20 06:08:45;;;;;;;1.90;0.70;;;;;;;2.77;100.00;99664.16;1715385;82;21055;-68
2022/10/20 06:11:13;;;;;;;1.62;0.65;;;;;;;2.80;100.00;99666.40;1721492;82;21591;-69
2022/10/20 06:13:39;;;;;;;1.20;0.53;;;;;;;2.86;100.00;99659.33;1720509;82;21024;-69
2022/10/20 06:16:13;;;;;;;1.20;0.47;;;;;;;2.94;100.00;99660.38;1718838;82;21487;-69
2022/10/20 06:18:41;;;;;;;2.52;0.47;;;;;;;3.01;100.00;99663.27;1717865;82;21019;-68
2022/10/20 06:21:12;;;;;;;1.45;0.55;;;;;;;3.09;100.00;99664.84;1728836;82;20988;-69
2022/10/20 06:23:39;;;;;;;1.25;0.50;;;;;;;3.08;100.00;99663.22;1741582;81;21519;-69
2022/10/20 06:26:07;;;;;;;4.30;0.60;;;;;;;3.11;100.00;99672.17;1727642;81;20977;-68
2022/10/20 06:28:38;;;;;;;2.33;0.60;;;;;;;3.16;100.00;99672.82;1754361;80;21050;-69
2022/10/20 06:31:18;;;;;;;2.20;0.70;;;;;;;3.21;100.00;99671.12;1750802;81;20967;-69
2022/10/20 06:33:45;;;;;;;3.42;0.57;;;;;;;3.25;100.00;99675.00;1746167;82;21071;-67
2022/10/20 06:36:12;;;;;;;2.65;0.70;;;;;;;3.22;100.00;99674.12;1739493;80;20940;-69
2022/10/20 06:38:39;;;;;;;2.05;0.78;;;;;;;3.22;100.00;99675.45;1749198;80;20959;-69
2022/10/20 06:41:08;;;;;;;;;;;;;;;3.23;100.00;99687.02;1750887;80;20985;-68
2022/10/20 06:43:35;;;;;;;1.95;0.60;;;;;;;3.27;100.00;99679.63;1762974;81;20134;-69
2022/10/20 06:46:03;;;;;;;1.60;0.50;;;;;;;3.23;100.00;99686.50;1758749;81;21542;-68
2022/10/20 06:48:31;;;;;;;1.65;0.60;;;;;;;3.18;100.00;99682.33;1770590;81;21058;-67
2022/10/20 06:50:59;;;;;;;1.72;0.50;;;;;;;3.18;100.00;99685.55;1754982;80;20995;-67
2022/10/20 06:53:27;;;;;;;2.10;0.57;;;;;;;3.18;100.00;99693.09;1742804;81;21043;-67
2022/10/20 06:56:00;;;;;;;1.42;0.75;;;;;;;3.20;100.00;99686.13;1740624;81;21015;-67
2022/10/20 06:58:26;;;;;;;1.10;0.75;;;;;;;3.21;100.00;99700.70;1745934;81;21018;-67
2022/10/20 07:01:13;;;;;;;2.60;1.40;;;;;;;3.16;100.00;99695.17;1745758;80;20999;-67
2022/10/20 07:03:40;;;;;;;1.30;0.55;;;;;;;3.20;100.00;99696.37;1745725;80;21599;-68
2022/10/20 07:06:07;;;;;;;1.77;0.60;;;;;;;3.25;100.00;99697.88;1750667;81;20975;-68
2022/10/20 07:08:34;;;;;;;2.08;0.62;;;;;;;3.29;100.00;99698.24;1752886;81;21035;-69
2022/10/20 07:11:13;;;;;;;1.50;0.55;;;;;;;3.32;100.00;99698.61;1735487;80;20947;-69
2022/10/20 07:13:41;;;;;;;1.30;0.50;;;;;;;3.37;100.00;99701.95;1741469;80;21502;-68
2022/10/20 07:16:11;;;;;;;1.75;0.57;;;;;;;3.38;100.00;99704.43;1747288;80;20970;-68
2022/10/20 07:18:38;;;;;;;2.08;0.70;;;;;;;3.33;100.00;99707.52;1749241;81;20973;-68
2022/10/20 07:21:08;;;;;;;3.12;0.42;;;;;;;3.30;100.00;99711.97;1733467;80;21489;-67
2022/10/20 07:23:35;;;;;;;2.80;0.68;;;;;;;3.29;100.00;99713.87;1748016;81;21574;-66
2022/10/20 07:26:10;;;;;;;1.20;0.60;;;;;;;3.29;100.00;99711.17;1740020;81;20976;-66
2022/10/20 07:28:36;;;;;;;1.17;0.60;;;;;;;3.31;100.00;99710.94;1739954;81;21059;-67
2022/10/20 07:31:05;;;;;;;2.08;0.60;;;;;;;3.27;100.00;99713.25;1741472;80;20975;-68
2022/10/20 07:33:32;;;;;;;1.75;0.75;;;;;;;3.29;100.00;99713.04;1740143;81;20999;-67
2022/10/20 07:35:58;;;;;;;1.62;0.70;;;;;;;3.38;100.00;99716.53;1742591;81;21010;-67
2022/10/20 07:38:25;;;;;;;2.27;0.82;;;;;;;3.47;100.00;99712.48;1743403;80;21501;-67
2022/10/20 07:40:51;;;;;;;1.30;0.80;;;;;;;3.53;100.00;99720.19;1739335;80;20939;-68
2022/10/20 07:43:19;;;;;;;2.37;0.75;;;;;;;3.61;100.00;99724.44;1744904;80;21915;-68
2022/10/20 07:45:45;;;;;;;2.12;0.90;;;;;;;3.64;100.00;99720.77;1744029;81;20991;-68
2022/10/20 07:48:12;;;;;;;2.87;1.10;;;;;;;3.68;100.00;99728.70;1745569;81;21037;-68
2022/10/20 07:50:39;;;;;;;2.87;1.05;;;;;;;3.66;100.00;99728.60;1746747;81;21455;-69
2022/10/20 07:53:06;;;;;;;2.22;1.05;;;;;;;3.71;100.00;99731.45;1736402;81;21009;-70
2022/10/20 07:55:33;;;;;;;2.17;1.00;;;;;;;3.75;100.00;99741.55;1742571;81;20972;-68
2022/10/20 07:57:59;;;;;;;0.93;0.70;;;;;;;3.75;100.00;99734.81;1746430;81;21003;-67
2022/10/20 08:00:26;;;;;;;3.00;0.80;;;;;;;3.74;100.00;99735.03;1739514;82;21531;-68
2022/10/20 08:02:52;;;;;;;1.65;0.90;;;;;;;3.76;100.00;99734.27;1736199;81;21069;-68
2022/10/20 08:05:19;;;;;;;1.42;0.70;;;;;;;3.78;100.00;99747.00;1738505;81;20977;-68
2022/10/20 08:07:45;;;;;;;1.52;0.57;;;;;;;3.79;100.00;99741.36;1749542;81;21011;-67
2022/10/20 08:10:12;;;;;;;1.67;0.80;;;;;;;3.72;100.00;99732.55;1744330;81;21037;-67
2022/10/20 08:12:38;;;;;;;2.62;0.62;;;;;;;3.69;100.00;99743.78;1742322;80;21503;-68
2022/10/20 08:15:06;;;;;;;1.42;0.68;;;;;;;3.72;100.00;99747.36;1745046;80;21050;-67
2022/10/20 08:17:33;;;;;;;1.82;0.80;;;;;;;3.75;100.00;99754.19;1737063;81;21580;-67
2022/10/20 08:20:00;;;;;;;1.67;0.65;;;;;;;3.73;100.00;99756.27;1711474;82;21589;-68
2022/10/20 08:22:26;;;;;;;1.98;0.82;;;;;;;3.72;100.00;99759.48;1735276;81;21063;-68
2022/10/20 08:24:53;;;;;;;3.10;0.90;;;;;;;3.76;100.00;99757.15;1746599;81;20995;-68
2022/10/20 08:27:19;;;;;;;;;;;;;;;3.83;100.00;99761.92;1753865;80;21626;-67
2022/10/20 08:29:45;;;;;;;1.57;1.00;;;;;;;3.82;100.00;99761.65;1747560;80;20512;-67
2022/10/20 08:32:13;;;;;;;3.12;0.80;;;;;;;3.84;100.00;99767.09;1749521;80;21023;-68
2022/10/20 08:34:39;;;;;;;2.10;0.80;;;;;;;3.90;100.00;99776.95;1755953;80;20991;-67
2022/10/20 08:37:06;;;;;;;;;;;;;;;3.95;100.00;99776.28;1751017;82;21704;-68
2022/10/20 08:39:32;;;;;;;2.98;0.82;;;;;;;3.94;100.00;99778.66;1751401;80;20134;-69
2022/10/20 08:41:59;;;;;;;1.82;0.80;;;;;;;3.84;100.00;99781.91;1751110;80;21510;-68
2022/10/20 08:44:29;;;;;;;1.77;0.60;;;;;;;3.87;100.00;99783.31;1752609;80;21003;-65
2022/10/20 08:46:55;;;;;;;2.12;0.60;;;;;;;3.85;100.00;99792.98;1754342;80;21025;-68
2022/10/20 08:49:28;;;;;;;0.80;0.40;;;;;;;3.84;100.00;99798.59;1739662;81;21520;-68
2022/10/20 08:51:55;;;;;;;1.60;0.60;;;;;;;3.81;100.00;99792.31;1732058;80;21031;-68
2022/10/20 08:54:22;;;;;;;1.80;0.70;;;;;;;3.82;100.00;99798.83;1752480;80;21595;-69
2022/10/20 08:56:48;;;;;;;1.17;0.68;;;;;;;3.91;100.00;99799.33;1750398;80;21098;-67
2022/10/20 08:59:28;;;;;;;1.82;0.93;;;;;;;3.87;100.00;99802.99;1753539;82;21490;-68
2022/10/20 09:01:55;;;;;;;1.80;0.93;;;;;;;3.91;100.00;99804.19;1743015;80;21106;-66
2022/10/20 09:04:34;;;;;;;2.10;1.00;;;;;;;3.99;100.00;99808.45;1691395;81;20999;-67
2022/10/20 09:07:30;;;;;;;2.62;1.10;;;;;;;4.01;100.00;99814.41;1742031;82;21037;-68
2022/10/20 09:10:27;;;;;;;3.10;1.15;;;;;;;4.07;100.00;99814.88;1748590;80;21004;-68
2022/10/20 09:12:53;;;;;;;2.37;1.00;;;;;;;4.10;100.00;99821.16;1753947;82;21080;-68
2022/10/20 09:15:20;;;;;;;4.15;1.40;;;;;;;4.13;100.00;99826.59;1750419;81;20999;-68
2022/10/20 09:17:59;;;;;;;2.92;1.27;;;;;;;4.17;100.00;99826.45;1745974;80;21045;-69
2022/10/20 09:20:33;;;;;;;3.60;1.45;;;;;;;4.21;100.00;99830.33;1735952;80;21074;-68
2022/10/20 09:22:59;;;;;;;2.65;1.67;;;;;;;4.26;100.00;99834.50;1753362;80;21039;-68
2022/10/20 09:25:26;;;;;;;2.72;1.47;;;;;;;4.24;100.00;99833.91;1743409;80;21078;-69
2022/10/20 09:27:54;;;;;;;2.17;1.27;;;;;;;4.28;100.00;99830.55;1754513;82;21530;-68
2022/10/20 09:30:25;;;;;;;4.42;1.30;;;;;;;4.33;100.00;99825.80;1751734;80;21910;-67
2022/10/20 09:32:54;;;;;;;2.10;1.07;;;;;;;4.34;100.00;99831.48;1710812;82;21016;-68
2022/10/20 09:35:27;;;;;;;2.60;1.35;;;;;;;4.40;100.00;99832.73;1707307;82;20982;-68
2022/10/20 09:38:21;;;;;;;1.80;1.10;;;;;;;4.36;100.00;99842.84;1746537;80;21000;-68
2022/10/20 09:41:14;;;;;;;2.70;1.00;;;;;;;4.36;100.00;99841.50;1751972;82;21043;-69
2022/10/20 09:43:56;;;;;;;1.85;1.17;;;;;;;4.40;100.00;99838.65;1755468;80;20955;-68
2022/10/20 09:46:25;;;;;;;2.72;1.30;;;;;;;4.38;100.00;99859.11;1751181;80;21020;-68
2022/10/20 09:48:52;;;;;;;2.20;1.00;;;;;;;4.44;100.00;99856.02;1750750;80;21022;-68
2022/10/20 09:51:22;;;;;;;3.67;1.20;;;;;;;4.52;100.00;99851.66;1758000;80;21095;-69
2022/10/20 09:54:01;;;;;;;3.67;1.20;;;;;;;4.53;100.00;99854.10;1756783;80;20971;-69
2022/10/20 09:56:37;;;;;;;4.25;1.57;;;;;;;4.59;100.00;99855.08;1753064;80;21098;-68
2022/10/20 09:59:07;;;;;;;4.60;1.47;;;;;;;4.58;100.00;99858.81;1762845;80;21002;-69
2022/10/20 10:01:34;;;;;;;4.08;1.50;;;;;;;4.58;100.00;99849.90;1754452;82;21538;-69
2022/10/20 10:04:00;;;;;;;;;;;;;;;4.63;100.00;99866.22;1707306;80;20955;-69
2022/10/20 10:06:41;;;;;;;5.40;1.70;;;;;;;4.60;100.00;99862.13;1753083;80;20111;-68
2022/10/20 10:09:33;;;;;;;3.67;1.87;;;;;;;4.62;100.00;99868.61;1760087;80;20998;-70
2022/10/20 10:12:15;;;;;;;3.27;1.35;;;;;;;4.68;100.00;99871.73;1750343;80;20993;-69
2022/10/20 10:14:54;;;;;;;3.22;1.20;;;;;;;4.69;100.00;99873.38;1751483;80;20987;-71
2022/10/20 10:17:31;;;;;;;2.35;1.02;;;;;;;4.73;100.00;99864.61;1755019;80;21063;-70
2022/10/20 10:19:59;;;;;;;2.30;1.20;;;;;;;4.81;100.00;99867.51;1754443;80;20990;-69
2022/10/20 10:22:25;;;;;;;2.30;1.20;;;;;;;4.81;100.00;99879.64;1752877;80;21468;-68
2022/10/20 10:24:53;;;;;;;2.42;1.12;;;;;;;4.83;100.00;99872.95;1745441;80;21075;-69
2022/10/20 10:27:31;;;;;;;3.08;1.40;;;;;;;4.89;100.00;99882.81;1731911;80;21084;-72
2022/10/20 10:30:32;;;;;;;1.75;1.00;;;;;;;4.93;100.00;99871.86;1753230;80;21011;-68
2022/10/20 10:32:59;;;;;;;1.92;1.10;;;;;;;4.97;100.00;99871.70;1752583;81;21016;-71
2022/10/20 10:35:38;;;;;;;2.62;0.98;;;;;;;5.03;100.00;99878.02;1754372;82;21054;-69
2022/10/20 10:38:09;;;;;;;1.80;1.10;;;;;;;5.05;100.00;99885.91;1754564;82;21641;-70
2022/10/20 10:40:48;;;;;;;2.30;1.17;;;;;;;5.10;100.00;99886.04;1754706;82;21022;-70
2022/10/20 10:44:01;;;;;;;5.53;1.00;;;;;;;5.19;100.00;99884.63;1742933;82;21487;-69
2022/10/20 10:46:38;;;;;;;4.83;1.40;;;;;;;5.26;100.00;99874.02;1723302;83;21100;-70
2022/10/20 10:49:29;;;;;;;3.15;1.20;;;;;;;5.24;100.00;99872.09;1723463;83;21579;-71
2022/10/20 10:52:21;;;;;;;2.92;1.20;;;;;;;5.27;100.00;99864.05;1747393;80;21075;-70
2022/10/20 10:55:20;;;;;;;3.40;1.45;;;;;;;5.33;100.00;99872.55;1674681;81;21052;-70
2022/10/20 10:58:19;;;;;;;2.70;1.47;;;;;;;5.45;100.00;99867.47;1753056;82;21015;-70
2022/10/20 11:01:06;;;;;;;3.37;1.55;;;;;;;5.62;100.00;99870.27;1754134;81;21039;-69
2022/10/20 11:04:03;;;;;;;1.90;1.00;;;;;;;5.72;100.00;99871.01;1754644;82;20971;-68
2022/10/20 11:06:47;;;;;;;2.00;1.20;;;;;;;5.89;100.00;99881.41;1753328;81;21055;-72
2022/10/20 11:09:37;;;;;;;3.35;1.40;;;;;;;6.07;100.00;99869.09;1753407;80;21588;-71
2022/10/20 11:12:39;;;;;;;4.28;1.45;;;;;;;6.12;100.00;99877.32;1724732;83;21036;-72
2022/10/20 11:15:50;;;;;;;7.08;2.92;;;;;;;6.14;100.00;99871.13;1746513;82;20988;-68
2022/10/20 11:18:43;;;;;;;6.90;3.27;;;;;;;6.20;100.00;99866.66;1750329;81;21050;-69
2022/10/20 11:21:29;;;;;;;3.02;1.82;;;;;;;6.18;100.00;99865.54;1754457;82;21054;-69
2022/10/20 11:24:16;;;;;;;2.33;1.45;;;;;;;6.16;100.00;99872.25;1753695;82;21475;-70
2022/10/20 11:26:44;;;;;;;6.30;2.10;;;;;;;6.18;100.00;99856.08;1733583;81;21567;-69
2022/10/20 11:29:28;;;;;;;5.22;1.40;;;;;;;6.15;100.00;99857.91;1760208;81;21463;-68
2022/10/20 11:32:04;;;;;;;2.70;1.35;;;;;;;6.19;100.00;99883.41;1729476;81;21036;-70
2022/10/20 11:34:44;;;;;;;3.30;1.57;;;;;;;6.24;100.00;99870.50;1757445;81;21067;-71
2022/10/20 11:37:26;;;;;;;2.95;1.50;;;;;;;6.24;100.00;99869.16;1756268;80;21011;-69
2022/10/20 11:40:14;;;;;;;2.00;1.10;;;;;;;6.23;100.00;99881.05;1751717;80;21048;-71
2022/10/20 11:43:18;;;;;;;1.70;0.93;;;;;;;6.24;100.00;99883.49;1750077;81;21058;-69
2022/10/20 11:45:53;;;;;;;1.55;0.80;;;;;;;6.23;100.00;99871.06;1757376;80;21046;-67
2022/10/20 11:48:41;;;;;;;8.23;1.10;;;;;;;6.14;100.00;99891.41;1751104;80;21863;-67
2022/10/20 11:51:34;;;;;;;3.20;0.93;;;;;;;6.17;100.00;99890.09;1744980;82;21008;-69
2022/10/20 11:54:26;;;;;;;4.10;1.50;;;;;;;6.21;100.00;99893.97;1746587;80;21565;-67
2022/10/20 11:57:31;;;;;;;2.75;1.55;;;;;;;6.16;100.00;99893.87;1747573;80;21012;-68
2022/10/20 12:00:29;;;;;;;3.50;1.70;;;;;;;6.14;100.00;99895.45;1739328;80;21012;-68
2022/10/20 12:03:17;;;;;;;3.62;1.55;;;;;;;6.18;100.00;99898.50;1757111;80;21063;-69